sensor_id;sensor_type;location;lat;lon;timestamp;P1;durP1;ratioP1;P2;durP2;ratioP2
72728;SDS011;60843;52.062;4.508;2022-10-04T00:00:26;9.85;;;3.50;;
72728;SDS011;60843;52.062;4.508;2022-10-04T00:03:01;10.82;;;3.53;;
72728;SDS011;60843;52.062;4.508;2022-10-04T00:05:42;9.38;;;3.72;;
72728;SDS011;60843;52.062;4.508;2022-10-04T00:08:18;11.02;;;4.40;;
72728;SDS011;60843;52.062;4.508;2022-10-04T00:11:01;15.13;;;4.18;;
72728;SDS011;60843;52.062;4.508;2022-10-04T00:13:27;10.48;;;3.65;;
72728;SDS011;60843;52.062;4.508;2022-10-04T00:15:53;12.00;;;4.13;;
72728;SDS011;60843;52.062;4.508;2022-10-04T00:18:23;7.23;;;3.80;;
72728;SDS011;60843;52.062;4.508;2022-10-04T00:20:58;10.48;;;3.63;;
72728;SDS011;60843;52.062;4.508;2022-10-04T00:23:28;9.93;;;3.78;;
72728;SDS011;60843;52.062;4.508;2022-10-04T00:34:48;9.55;;;4.07;;
72728;SDS011;60843;52.062;4.508;2022-10-04T00:37:18;13.65;;;3.88;;
72728;SDS011;60843;52.062;4.508;2022-10-04T00:39:45;10.68;;;3.88;;
72728;SDS011;60843;52.062;4.508;2022-10-04T00:45:00;12.95;;;4.00;;
72728;SDS011;60843;52.062;4.508;2022-10-04T00:50:21;6.95;;;3.35;;
72728;SDS011;60843;52.062;4.508;2022-10-04T00:52:52;9.88;;;4.05;;
72728;SDS011;60843;52.062;4.508;2022-10-04T00:55:24;11.18;;;3.83;;
72728;SDS011;60843;52.062;4.508;2022-10-04T00:57:56;10.23;;;4.05;;
72728;SDS011;60843;52.062;4.508;2022-10-04T01:00:24;17.50;;;4.68;;
72728;SDS011;60843;52.062;4.508;2022-10-04T01:02:51;14.35;;;4.45;;
72728;SDS011;60843;52.062;4.508;2022-10-04T01:05:35;11.27;;;3.55;;
72728;SDS011;60843;52.062;4.508;2022-10-04T01:08:08;12.48;;;4.13;;
72728;SDS011;60843;52.062;4.508;2022-10-04T01:10:46;10.98;;;4.70;;
72728;SDS011;60843;52.062;4.508;2022-10-04T01:13:18;14.82;;;4.50;;
72728;SDS011;60843;52.062;4.508;2022-10-04T01:16:46;11.32;;;4.20;;
72728;SDS011;60843;52.062;4.508;2022-10-04T01:18:43;12.20;;;4.35;;
72728;SDS011;60843;52.062;4.508;2022-10-04T01:23:44;14.90;;;4.75;;
72728;SDS011;60843;52.062;4.508;2022-10-04T01:29:01;12.35;;;4.55;;
72728;SDS011;60843;52.062;4.508;2022-10-04T01:31:30;11.15;;;4.88;;
72728;SDS011;60843;52.062;4.508;2022-10-04T01:33:58;11.52;;;4.93;;
72728;SDS011;60843;52.062;4.508;2022-10-04T01:36:24;21.63;;;4.70;;
72728;SDS011;60843;52.062;4.508;2022-10-04T01:38:51;12.40;;;5.07;;
72728;SDS011;60843;52.062;4.508;2022-10-04T01:41:18;15.32;;;4.93;;
72728;SDS011;60843;52.062;4.508;2022-10-04T01:43:47;11.13;;;4.82;;
72728;SDS011;60843;52.062;4.508;2022-10-04T01:46:31;13.30;;;5.22;;
72728;SDS011;60843;52.062;4.508;2022-10-04T01:48:59;7.50;;;4.95;;
72728;SDS011;60843;52.062;4.508;2022-10-04T01:51:32;11.32;;;5.28;;
72728;SDS011;60843;52.062;4.508;2022-10-04T01:54:08;10.07;;;4.45;;
72728;SDS011;60843;52.062;4.508;2022-10-04T01:56:53;13.80;;;4.97;;
72728;SDS011;60843;52.062;4.508;2022-10-04T01:59:25;11.70;;;4.90;;
72728;SDS011;60843;52.062;4.508;2022-10-04T02:04:51;12.73;;;5.00;;
72728;SDS011;60843;52.062;4.508;2022-10-04T02:07:18;10.10;;;5.43;;
72728;SDS011;60843;52.062;4.508;2022-10-04T02:09:45;12.95;;;5.32;;
72728;SDS011;60843;52.062;4.508;2022-10-04T02:14:46;13.43;;;5.22;;
72728;SDS011;60843;52.062;4.508;2022-10-04T02:17:19;14.15;;;6.00;;
72728;SDS011;60843;52.062;4.508;2022-10-04T02:19:48;10.57;;;5.97;;
72728;SDS011;60843;52.062;4.508;2022-10-04T02:22:14;12.10;;;6.20;;
72728;SDS011;60843;52.062;4.508;2022-10-04T02:24:41;12.35;;;5.57;;
72728;SDS011;60843;52.062;4.508;2022-10-04T02:27:09;11.95;;;5.85;;
72728;SDS011;60843;52.062;4.508;2022-10-04T02:29:34;11.55;;;6.65;;
72728;SDS011;60843;52.062;4.508;2022-10-04T02:32:01;18.20;;;6.80;;
72728;SDS011;60843;52.062;4.508;2022-10-04T02:34:47;15.50;;;5.82;;
72728;SDS011;60843;52.062;4.508;2022-10-04T02:37:12;15.25;;;6.90;;
72728;SDS011;60843;52.062;4.508;2022-10-04T02:39:39;15.98;;;6.50;;
72728;SDS011;60843;52.062;4.508;2022-10-04T02:45:15;11.80;;;6.40;;
72728;SDS011;60843;52.062;4.508;2022-10-04T02:48:10;12.35;;;6.45;;
72728;SDS011;60843;52.062;4.508;2022-10-04T02:50:46;13.27;;;6.13;;
72728;SDS011;60843;52.062;4.508;2022-10-04T02:53:17;13.90;;;6.45;;
72728;SDS011;60843;52.062;4.508;2022-10-04T02:55:51;18.10;;;6.55;;
72728;SDS011;60843;52.062;4.508;2022-10-04T02:58:20;21.55;;;7.72;;
72728;SDS011;60843;52.062;4.508;2022-10-04T03:00:48;16.30;;;7.38;;
72728;SDS011;60843;52.062;4.508;2022-10-04T03:05:58;17.27;;;7.60;;
72728;SDS011;60843;52.062;4.508;2022-10-04T03:08:27;17.90;;;7.25;;
72728;SDS011;60843;52.062;4.508;2022-10-04T03:13:20;13.43;;;7.22;;
72728;SDS011;60843;52.062;4.508;2022-10-04T03:15:46;16.73;;;7.47;;
72728;SDS011;60843;52.062;4.508;2022-10-04T03:18:14;14.30;;;7.88;;
72728;SDS011;60843;52.062;4.508;2022-10-04T03:20:40;20.88;;;8.90;;
72728;SDS011;60843;52.062;4.508;2022-10-04T03:23:06;16.88;;;7.35;;
72728;SDS011;60843;52.062;4.508;2022-10-04T03:25:36;15.10;;;7.45;;
72728;SDS011;60843;52.062;4.508;2022-10-04T03:28:07;25.83;;;8.63;;
72728;SDS011;60843;52.062;4.508;2022-10-04T03:30:33;21.05;;;7.82;;
72728;SDS011;60843;52.062;4.508;2022-10-04T03:32:59;15.15;;;8.10;;
72728;SDS011;60843;52.062;4.508;2022-10-04T03:35:31;18.33;;;7.60;;
72728;SDS011;60843;52.062;4.508;2022-10-04T03:37:59;20.73;;;7.82;;
72728;SDS011;60843;52.062;4.508;2022-10-04T03:40:27;15.30;;;7.38;;
72728;SDS011;60843;52.062;4.508;2022-10-04T03:42:54;15.77;;;8.10;;
72728;SDS011;60843;52.062;4.508;2022-10-04T03:45:20;16.20;;;7.70;;
72728;SDS011;60843;52.062;4.508;2022-10-04T03:47:47;15.80;;;7.70;;
72728;SDS011;60843;52.062;4.508;2022-10-04T03:52:56;19.23;;;7.25;;
72728;SDS011;60843;52.062;4.508;2022-10-04T03:55:29;13.82;;;7.65;;
72728;SDS011;60843;52.062;4.508;2022-10-04T03:57:58;15.63;;;7.47;;
72728;SDS011;60843;52.062;4.508;2022-10-04T04:00:24;17.40;;;8.05;;
72728;SDS011;60843;52.062;4.508;2022-10-04T04:02:51;20.10;;;7.80;;
72728;SDS011;60843;52.062;4.508;2022-10-04T04:05:39;18.85;;;8.07;;
72728;SDS011;60843;52.062;4.508;2022-10-04T04:10:45;20.45;;;7.53;;
72728;SDS011;60843;52.062;4.508;2022-10-04T04:13:22;22.48;;;7.57;;
72728;SDS011;60843;52.062;4.508;2022-10-04T04:15:55;19.95;;;7.93;;
72728;SDS011;60843;52.062;4.508;2022-10-04T04:18:26;15.43;;;7.10;;
72728;SDS011;60843;52.062;4.508;2022-10-04T04:21:00;20.10;;;7.95;;
72728;SDS011;60843;52.062;4.508;2022-10-04T04:23:30;17.42;;;8.35;;
72728;SDS011;60843;52.062;4.508;2022-10-04T04:25:59;14.48;;;7.13;;
72728;SDS011;60843;52.062;4.508;2022-10-04T04:28:43;16.95;;;8.10;;
72728;SDS011;60843;52.062;4.508;2022-10-04T04:31:25;15.18;;;6.95;;
72728;SDS011;60843;52.062;4.508;2022-10-04T04:33:58;13.82;;;7.43;;
72728;SDS011;60843;52.062;4.508;2022-10-04T04:36:26;18.55;;;7.82;;
72728;SDS011;60843;52.062;4.508;2022-10-04T04:38:53;18.58;;;7.50;;
72728;SDS011;60843;52.062;4.508;2022-10-04T04:41:48;17.63;;;7.80;;
72728;SDS011;60843;52.062;4.508;2022-10-04T04:44:15;15.32;;;7.97;;
72728;SDS011;60843;52.062;4.508;2022-10-04T04:46:42;18.05;;;7.53;;
72728;SDS011;60843;52.062;4.508;2022-10-04T04:49:11;17.88;;;7.43;;
72728;SDS011;60843;52.062;4.508;2022-10-04T04:51:39;17.20;;;8.18;;
72728;SDS011;60843;52.062;4.508;2022-10-04T04:54:05;14.57;;;7.82;;
72728;SDS011;60843;52.062;4.508;2022-10-04T04:56:31;14.63;;;7.30;;
72728;SDS011;60843;52.062;4.508;2022-10-04T04:58:58;17.23;;;7.50;;
72728;SDS011;60843;52.062;4.508;2022-10-04T05:06:29;11.82;;;6.68;;
72728;SDS011;60843;52.062;4.508;2022-10-04T05:08:56;19.10;;;7.43;;
72728;SDS011;60843;52.062;4.508;2022-10-04T05:11:24;16.35;;;7.80;;
72728;SDS011;60843;52.062;4.508;2022-10-04T05:19:27;15.52;;;8.13;;
72728;SDS011;60843;52.062;4.508;2022-10-04T05:21:55;15.05;;;7.25;;
72728;SDS011;60843;52.062;4.508;2022-10-04T05:24:25;15.80;;;7.78;;
72728;SDS011;60843;52.062;4.508;2022-10-04T05:26:56;22.13;;;7.85;;
72728;SDS011;60843;52.062;4.508;2022-10-04T05:29:25;23.90;;;7.90;;
72728;SDS011;60843;52.062;4.508;2022-10-04T05:34:38;15.32;;;7.55;;
72728;SDS011;60843;52.062;4.508;2022-10-04T05:37:08;16.58;;;7.72;;
72728;SDS011;60843;52.062;4.508;2022-10-04T05:39:40;20.90;;;8.10;;
72728;SDS011;60843;52.062;4.508;2022-10-04T05:47:16;18.02;;;7.53;;
72728;SDS011;60843;52.062;4.508;2022-10-04T05:49:47;13.10;;;7.50;;
72728;SDS011;60843;52.062;4.508;2022-10-04T05:52:28;19.92;;;7.53;;
72728;SDS011;60843;52.062;4.508;2022-10-04T06:00:38;17.85;;;7.20;;
72728;SDS011;60843;52.062;4.508;2022-10-04T06:12:12;22.27;;;7.90;;
72728;SDS011;60843;52.062;4.508;2022-10-04T06:14:47;19.55;;;7.85;;
72728;SDS011;60843;52.062;4.508;2022-10-04T06:20:00;15.80;;;7.75;;
72728;SDS011;60843;52.062;4.508;2022-10-04T06:22:27;22.63;;;8.07;;
72728;SDS011;60843;52.062;4.508;2022-10-04T06:30:12;22.85;;;8.73;;
72728;SDS011;60843;52.062;4.508;2022-10-04T06:52:23;23.27;;;8.65;;
72728;SDS011;60843;52.062;4.508;2022-10-04T07:00:47;21.00;;;9.55;;
72728;SDS011;60843;52.062;4.508;2022-10-04T07:03:31;20.00;;;8.85;;
72728;SDS011;60843;52.062;4.508;2022-10-04T07:06:01;17.27;;;8.07;;
72728;SDS011;60843;52.062;4.508;2022-10-04T07:08:43;14.68;;;8.43;;
72728;SDS011;60843;52.062;4.508;2022-10-04T07:11:22;18.88;;;7.75;;
72728;SDS011;60843;52.062;4.508;2022-10-04T07:16:50;20.00;;;7.85;;
72728;SDS011;60843;52.062;4.508;2022-10-04T07:19:33;18.30;;;8.30;;
72728;SDS011;60843;52.062;4.508;2022-10-04T07:25:41;25.60;;;8.90;;
72728;SDS011;60843;52.062;4.508;2022-10-04T07:27:53;15.50;;;7.47;;
72728;SDS011;60843;52.062;4.508;2022-10-04T07:30:45;16.17;;;7.60;;
72728;SDS011;60843;52.062;4.508;2022-10-04T07:33:20;15.13;;;7.93;;
72728;SDS011;60843;52.062;4.508;2022-10-04T07:35:49;18.10;;;8.52;;
72728;SDS011;60843;52.062;4.508;2022-10-04T07:38:33;15.10;;;8.07;;
72728;SDS011;60843;52.062;4.508;2022-10-04T07:43:48;19.35;;;8.20;;
72728;SDS011;60843;52.062;4.508;2022-10-04T07:47:02;16.55;;;8.00;;
72728;SDS011;60843;52.062;4.508;2022-10-04T07:49:13;18.13;;;8.85;;
72728;SDS011;60843;52.062;4.508;2022-10-04T07:51:48;17.08;;;8.00;;
72728;SDS011;60843;52.062;4.508;2022-10-04T07:57:20;21.70;;;7.80;;
72728;SDS011;60843;52.062;4.508;2022-10-04T08:05:41;18.10;;;7.32;;
72728;SDS011;60843;52.062;4.508;2022-10-04T08:08:32;17.10;;;8.52;;
72728;SDS011;60843;52.062;4.508;2022-10-04T08:21:25;21.17;;;8.43;;
72728;SDS011;60843;52.062;4.508;2022-10-04T08:23:59;15.73;;;7.25;;
72728;SDS011;60843;52.062;4.508;2022-10-04T08:26:46;16.63;;;8.05;;
72728;SDS011;60843;52.062;4.508;2022-10-04T08:37:48;16.77;;;8.00;;
72728;SDS011;60843;52.062;4.508;2022-10-04T09:22:08;16.02;;;6.45;;
72728;SDS011;60843;52.062;4.508;2022-10-04T09:27:10;12.52;;;6.18;;
72728;SDS011;60843;52.062;4.508;2022-10-04T09:30:00;12.32;;;5.95;;
72728;SDS011;60843;52.062;4.508;2022-10-04T09:43:34;13.45;;;5.70;;
72728;SDS011;60843;52.062;4.508;2022-10-04T10:03:00;12.15;;;5.57;;
72728;SDS011;60843;52.062;4.508;2022-10-04T10:16:27;13.32;;;4.72;;
72728;SDS011;60843;52.062;4.508;2022-10-04T10:33:39;18.55;;;5.07;;
72728;SDS011;60843;52.062;4.508;2022-10-04T10:42:17;9.60;;;5.25;;
72728;SDS011;60843;52.062;4.508;2022-10-04T10:47:36;10.13;;;5.10;;
72728;SDS011;60843;52.062;4.508;2022-10-04T11:29:12;9.70;;;5.20;;
72728;SDS011;60843;52.062;4.508;2022-10-04T11:37:16;10.27;;;4.47;;
72728;SDS011;60843;52.062;4.508;2022-10-04T11:43:10;9.07;;;4.22;;
72728;SDS011;60843;52.062;4.508;2022-10-04T11:45:54;12.68;;;4.70;;
72728;SDS011;60843;52.062;4.508;2022-10-04T11:51:50;11.85;;;5.25;;
72728;SDS011;60843;52.062;4.508;2022-10-04T11:54:30;10.88;;;5.07;;
72728;SDS011;60843;52.062;4.508;2022-10-04T11:57:38;13.85;;;5.53;;
72728;SDS011;60843;52.062;4.508;2022-10-04T12:00:19;9.90;;;4.85;;
72728;SDS011;60843;52.062;4.508;2022-10-04T12:02:53;13.77;;;5.85;;
72728;SDS011;60843;52.062;4.508;2022-10-04T12:05:43;11.27;;;5.22;;
72728;SDS011;60843;52.062;4.508;2022-10-04T12:08:25;11.00;;;5.45;;
72728;SDS011;60843;52.062;4.508;2022-10-04T12:31:34;10.80;;;5.18;;
72728;SDS011;60843;52.062;4.508;2022-10-04T12:39:35;9.93;;;5.13;;
72728;SDS011;60843;52.062;4.508;2022-10-04T12:47:44;11.60;;;5.57;;
72728;SDS011;60843;52.062;4.508;2022-10-04T12:50:52;10.85;;;4.80;;
72728;SDS011;60843;52.062;4.508;2022-10-04T13:05:02;13.07;;;5.10;;
72728;SDS011;60843;52.062;4.508;2022-10-04T13:07:39;10.30;;;4.47;;
72728;SDS011;60843;52.062;4.508;2022-10-04T13:15:57;7.03;;;3.95;;
72728;SDS011;60843;52.062;4.508;2022-10-04T13:18:33;7.28;;;3.90;;
72728;SDS011;60843;52.062;4.508;2022-10-04T13:21:16;10.48;;;4.50;;
72728;SDS011;60843;52.062;4.508;2022-10-04T13:24:06;7.75;;;4.05;;
72728;SDS011;60843;52.062;4.508;2022-10-04T13:29:31;10.30;;;4.53;;
72728;SDS011;60843;52.062;4.508;2022-10-04T13:32:12;8.88;;;4.15;;
72728;SDS011;60843;52.062;4.508;2022-10-04T13:43:19;17.05;;;4.20;;
72728;SDS011;60843;52.062;4.508;2022-10-04T13:46:25;11.90;;;4.50;;
72728;SDS011;60843;52.062;4.508;2022-10-04T13:49:06;7.15;;;3.92;;
72728;SDS011;60843;52.062;4.508;2022-10-04T13:51:40;7.13;;;3.78;;
72728;SDS011;60843;52.062;4.508;2022-10-04T13:57:50;9.35;;;3.83;;
72728;SDS011;60843;52.062;4.508;2022-10-04T14:00:42;8.02;;;3.50;;
72728;SDS011;60843;52.062;4.508;2022-10-04T14:14:09;12.48;;;4.43;;
72728;SDS011;60843;52.062;4.508;2022-10-04T14:23:09;10.93;;;3.67;;
72728;SDS011;60843;52.062;4.508;2022-10-04T14:57:12;8.98;;;4.03;;
72728;SDS011;60843;52.062;4.508;2022-10-04T15:00:07;8.52;;;3.85;;
72728;SDS011;60843;52.062;4.508;2022-10-04T15:11:30;7.28;;;3.63;;
72728;SDS011;60843;52.062;4.508;2022-10-04T15:13:57;9.45;;;4.15;;
72728;SDS011;60843;52.062;4.508;2022-10-04T15:16:35;6.88;;;4.40;;
72728;SDS011;60843;52.062;4.508;2022-10-04T15:19:23;8.63;;;4.47;;
72728;SDS011;60843;52.062;4.508;2022-10-04T15:30:00;8.45;;;4.68;;
72728;SDS011;60843;52.062;4.508;2022-10-04T15:32:52;9.65;;;4.30;;
72728;SDS011;60843;52.062;4.508;2022-10-04T15:49:37;9.88;;;3.92;;
72728;SDS011;60843;52.062;4.508;2022-10-04T15:58:00;8.88;;;3.80;;
72728;SDS011;60843;52.062;4.508;2022-10-04T16:06:43;8.90;;;3.63;;
72728;SDS011;60843;52.062;4.508;2022-10-04T16:14:50;9.23;;;4.13;;
72728;SDS011;60843;52.062;4.508;2022-10-04T16:17:35;7.57;;;4.22;;
72728;SDS011;60843;52.062;4.508;2022-10-04T16:22:33;10.10;;;4.25;;
72728;SDS011;60843;52.062;4.508;2022-10-04T16:30:24;7.22;;;3.70;;
72728;SDS011;60843;52.062;4.508;2022-10-04T16:35:25;11.73;;;3.92;;
72728;SDS011;60843;52.062;4.508;2022-10-04T16:56:14;8.32;;;4.05;;
72728;SDS011;60843;52.062;4.508;2022-10-04T17:06:55;10.13;;;4.10;;
72728;SDS011;60843;52.062;4.508;2022-10-04T17:09:29;6.75;;;3.58;;
72728;SDS011;60843;52.062;4.508;2022-10-04T17:25:46;7.50;;;3.40;;
72728;SDS011;60843;52.062;4.508;2022-10-04T17:28:33;12.07;;;3.80;;
72728;SDS011;60843;52.062;4.508;2022-10-04T17:33:50;7.28;;;3.38;;
72728;SDS011;60843;52.062;4.508;2022-10-04T17:36:42;6.93;;;3.25;;
72728;SDS011;60843;52.062;4.508;2022-10-04T17:50:24;5.60;;;3.25;;
72728;SDS011;60843;52.062;4.508;2022-10-04T17:53:32;6.03;;;3.58;;
72728;SDS011;60843;52.062;4.508;2022-10-04T17:56:26;5.35;;;3.10;;
72728;SDS011;60843;52.062;4.508;2022-10-04T17:59:07;5.93;;;3.20;;
72728;SDS011;60843;52.062;4.508;2022-10-04T18:02:19;6.40;;;3.33;;
72728;SDS011;60843;52.062;4.508;2022-10-04T18:04:27;5.95;;;3.15;;
72728;SDS011;60843;52.062;4.508;2022-10-04T18:06:56;4.28;;;3.00;;
72728;SDS011;60843;52.062;4.508;2022-10-04T18:12:10;6.63;;;3.00;;
72728;SDS011;60843;52.062;4.508;2022-10-04T18:14:57;6.25;;;2.97;;
72728;SDS011;60843;52.062;4.508;2022-10-04T18:17:39;5.15;;;2.75;;
72728;SDS011;60843;52.062;4.508;2022-10-04T18:22:59;3.58;;;2.53;;
72728;SDS011;60843;52.062;4.508;2022-10-04T18:25:32;5.15;;;2.47;;
72728;SDS011;60843;52.062;4.508;2022-10-04T18:28:03;6.20;;;2.70;;
72728;SDS011;60843;52.062;4.508;2022-10-04T18:36:20;3.92;;;2.67;;
72728;SDS011;60843;52.062;4.508;2022-10-04T18:39:02;9.88;;;3.00;;
72728;SDS011;60843;52.062;4.508;2022-10-04T18:41:45;8.93;;;2.60;;
72728;SDS011;60843;52.062;4.508;2022-10-04T18:44:26;6.70;;;2.70;;
72728;SDS011;60843;52.062;4.508;2022-10-04T18:46:54;5.53;;;2.60;;
72728;SDS011;60843;52.062;4.508;2022-10-04T18:49:22;3.70;;;2.30;;
72728;SDS011;60843;52.062;4.508;2022-10-04T18:57:24;6.00;;;2.30;;
72728;SDS011;60843;52.062;4.508;2022-10-04T19:00:20;3.40;;;1.73;;
72728;SDS011;60843;52.062;4.508;2022-10-04T19:08:50;3.63;;;2.25;;
72728;SDS011;60843;52.062;4.508;2022-10-04T19:22:01;7.32;;;2.47;;
72728;SDS011;60843;52.062;4.508;2022-10-04T19:24:43;4.93;;;2.45;;
72728;SDS011;60843;52.062;4.508;2022-10-04T19:27:23;7.32;;;2.30;;
72728;SDS011;60843;52.062;4.508;2022-10-04T19:33:10;6.10;;;1.90;;
72728;SDS011;60843;52.062;4.508;2022-10-04T19:36:01;3.67;;;1.80;;
72728;SDS011;60843;52.062;4.508;2022-10-04T19:38:49;3.03;;;1.48;;
72728;SDS011;60843;52.062;4.508;2022-10-04T19:41:28;4.50;;;1.50;;
72728;SDS011;60843;52.062;4.508;2022-10-04T19:52:38;3.90;;;1.35;;
72728;SDS011;60843;52.062;4.508;2022-10-04T19:58:40;5.57;;;1.65;;
72728;SDS011;60843;52.062;4.508;2022-10-04T20:00:52;3.50;;;1.30;;
72728;SDS011;60843;52.062;4.508;2022-10-04T20:03:19;3.83;;;1.45;;
72728;SDS011;60843;52.062;4.508;2022-10-04T20:05:45;3.75;;;1.38;;
72728;SDS011;60843;52.062;4.508;2022-10-04T20:08:16;3.90;;;1.30;;
72728;SDS011;60843;52.062;4.508;2022-10-04T20:13:38;4.22;;;1.25;;
72728;SDS011;60843;52.062;4.508;2022-10-04T20:16:04;3.75;;;1.17;;
72728;SDS011;60843;52.062;4.508;2022-10-04T20:26:03;2.40;;;1.20;;
72728;SDS011;60843;52.062;4.508;2022-10-04T20:33:46;2.33;;;1.05;;
72728;SDS011;60843;52.062;4.508;2022-10-04T20:36:58;2.88;;;1.00;;
72728;SDS011;60843;52.062;4.508;2022-10-04T20:39:08;1.20;;;0.80;;
72728;SDS011;60843;52.062;4.508;2022-10-04T20:47:35;2.13;;;0.95;;
72728;SDS011;60843;52.062;4.508;2022-10-04T20:50:12;1.02;;;0.77;;
72728;SDS011;60843;52.062;4.508;2022-10-04T20:52:55;2.53;;;0.93;;
72728;SDS011;60843;52.062;4.508;2022-10-04T20:55:27;2.72;;;1.00;;
72728;SDS011;60843;52.062;4.508;2022-10-04T20:57:55;3.10;;;0.95;;
72728;SDS011;60843;52.062;4.508;2022-10-04T21:00:23;3.97;;;1.23;;
72728;SDS011;60843;52.062;4.508;2022-10-04T21:03:05;4.15;;;1.00;;
72728;SDS011;60843;52.062;4.508;2022-10-04T21:05:32;2.55;;;0.90;;
72728;SDS011;60843;52.062;4.508;2022-10-04T21:08:13;4.70;;;1.08;;
72728;SDS011;60843;52.062;4.508;2022-10-04T21:11:08;1.92;;;1.00;;
72728;SDS011;60843;52.062;4.508;2022-10-04T21:16:53;2.35;;;1.20;;
72728;SDS011;60843;52.062;4.508;2022-10-04T21:22:07;2.05;;;1.25;;
72728;SDS011;60843;52.062;4.508;2022-10-04T21:27:34;2.92;;;1.50;;
72728;SDS011;60843;52.062;4.508;2022-10-04T21:30:00;3.30;;;1.38;;
72728;SDS011;60843;52.062;4.508;2022-10-04T21:32:31;2.13;;;1.38;;
72728;SDS011;60843;52.062;4.508;2022-10-04T21:34:58;2.35;;;1.33;;
72728;SDS011;60843;52.062;4.508;2022-10-04T21:37:24;3.17;;;1.48;;
72728;SDS011;60843;52.062;4.508;2022-10-04T21:39:50;5.43;;;1.35;;
72728;SDS011;60843;52.062;4.508;2022-10-04T21:42:16;3.38;;;1.15;;
72728;SDS011;60843;52.062;4.508;2022-10-04T21:44:42;3.92;;;1.20;;
72728;SDS011;60843;52.062;4.508;2022-10-04T21:47:08;4.68;;;1.30;;
72728;SDS011;60843;52.062;4.508;2022-10-04T21:49:34;3.35;;;1.00;;
72728;SDS011;60843;52.062;4.508;2022-10-04T21:51:59;2.28;;;1.15;;
72728;SDS011;60843;52.062;4.508;2022-10-04T21:54:25;1.80;;;0.90;;
72728;SDS011;60843;52.062;4.508;2022-10-04T21:56:51;2.10;;;1.10;;
72728;SDS011;60843;52.062;4.508;2022-10-04T21:59:17;1.50;;;0.93;;
72728;SDS011;60843;52.062;4.508;2022-10-04T22:01:43;5.13;;;1.10;;
72728;SDS011;60843;52.062;4.508;2022-10-04T22:04:09;1.80;;;1.20;;
72728;SDS011;60843;52.062;4.508;2022-10-04T22:06:34;1.75;;;0.90;;
72728;SDS011;60843;52.062;4.508;2022-10-04T22:09:00;1.95;;;0.80;;
72728;SDS011;60843;52.062;4.508;2022-10-04T22:11:25;8.10;;;1.08;;
72728;SDS011;60843;52.062;4.508;2022-10-04T22:13:51;4.93;;;0.90;;
72728;SDS011;60843;52.062;4.508;2022-10-04T22:16:16;2.70;;;0.90;;
72728;SDS011;60843;52.062;4.508;2022-10-04T22:18:42;2.75;;;1.00;;
72728;SDS011;60843;52.062;4.508;2022-10-04T22:21:07;1.92;;;1.17;;
72728;SDS011;60843;52.062;4.508;2022-10-04T22:23:42;2.93;;;1.00;;
72728;SDS011;60843;52.062;4.508;2022-10-04T22:26:08;2.03;;;0.98;;
72728;SDS011;60843;52.062;4.508;2022-10-04T22:28:52;3.08;;;1.17;;
72728;SDS011;60843;52.062;4.508;2022-10-04T22:31:20;3.97;;;1.05;;
72728;SDS011;60843;52.062;4.508;2022-10-04T22:33:49;1.50;;;1.02;;
72728;SDS011;60843;52.062;4.508;2022-10-04T22:39:05;2.75;;;0.90;;
72728;SDS011;60843;52.062;4.508;2022-10-04T22:44:06;2.97;;;1.10;;
72728;SDS011;60843;52.062;4.508;2022-10-04T22:46:42;3.38;;;0.95;;
72728;SDS011;60843;52.062;4.508;2022-10-04T22:49:10;3.08;;;1.02;;
72728;SDS011;60843;52.062;4.508;2022-10-04T22:51:38;1.30;;;0.90;;
72728;SDS011;60843;52.062;4.508;2022-10-04T22:54:11;4.10;;;1.10;;
72728;SDS011;60843;52.062;4.508;2022-10-04T22:56:38;2.40;;;0.80;;
72728;SDS011;60843;52.062;4.508;2022-10-04T22:59:05;3.38;;;1.00;;
72728;SDS011;60843;52.062;4.508;2022-10-04T23:01:33;3.42;;;1.00;;
72728;SDS011;60843;52.062;4.508;2022-10-04T23:03:59;1.20;;;0.90;;
72728;SDS011;60843;52.062;4.508;2022-10-04T23:06:24;3.00;;;0.75;;
72728;SDS011;60843;52.062;4.508;2022-10-04T23:08:50;2.20;;;0.80;;
72728;SDS011;60843;52.062;4.508;2022-10-04T23:11:15;1.50;;;1.02;;
72728;SDS011;60843;52.062;4.508;2022-10-04T23:13:41;2.60;;;0.88;;
72728;SDS011;60843;52.062;4.508;2022-10-04T23:16:15;3.38;;;1.40;;
72728;SDS011;60843;52.062;4.508;2022-10-04T23:18:43;2.45;;;0.90;;
72728;SDS011;60843;52.062;4.508;2022-10-04T23:21:19;3.75;;;1.00;;
72728;SDS011;60843;52.062;4.508;2022-10-04T23:23:46;3.65;;;1.20;;
72728;SDS011;60843;52.062;4.508;2022-10-04T23:26:12;2.45;;;1.00;;
72728;SDS011;60843;52.062;4.508;2022-10-04T23:28:49;2.05;;;0.90;;
72728;SDS011;60843;52.062;4.508;2022-10-04T23:31:21;2.75;;;0.90;;
72728;SDS011;60843;52.062;4.508;2022-10-04T23:33:47;1.63;;;0.80;;
72728;SDS011;60843;52.062;4.508;2022-10-04T23:36:13;3.72;;;1.00;;
72728;SDS011;60843;52.062;4.508;2022-10-04T23:38:42;1.17;;;0.80;;
72728;SDS011;60843;52.062;4.508;2022-10-04T23:41:12;1.60;;;0.95;;
72728;SDS011;60843;52.062;4.508;2022-10-04T23:43:37;1.42;;;0.80;;
72728;SDS011;60843;52.062;4.508;2022-10-04T23:46:10;2.47;;;0.90;;
72728;SDS011;60843;52.062;4.508;2022-10-04T23:48:39;1.42;;;0.63;;
72728;SDS011;60843;52.062;4.508;2022-10-04T23:51:05;3.22;;;0.90;;
72728;SDS011;60843;52.062;4.508;2022-10-04T23:53:32;3.47;;;0.95;;
72728;SDS011;60843;52.062;4.508;2022-10-04T23:56:01;3.95;;;0.85;;
72728;SDS011;60843;52.062;4.508;2022-10-04T23:58:30;2.30;;;1.10;;
